createdAt,value
2022-11-05T10:12:23.816Z,100248.97
2022-11-05T10:15:01.869Z,100247.91
2022-11-05T10:17:31.126Z,100253.15
2022-11-05T10:20:28.293Z,100256.64
2022-11-05T10:22:58.357Z,100263.98
2022-11-05T10:25:32.252Z,100265.98
2022-11-05T10:27:59.804Z,100265.32
2022-11-05T10:30:26.540Z,100273.47
2022-11-05T10:32:58.367Z,100278.90
2022-11-05T10:35:31.835Z,100274.48
2022-11-05T10:37:58.573Z,100272.39
2022-11-05T10:41:10.125Z,100274.58
2022-11-05T10:43:49.721Z,100276.95
2022-11-05T10:46:31.977Z,100278.94
2022-11-05T10:49:18.161Z,100274.14
2022-11-05T10:51:46.532Z,100266.41
2022-11-05T10:54:19.101Z,100265.77
2022-11-05T10:56:46.820Z,100271.86
2022-11-05T10:59:33.805Z,100273.34
2022-11-05T11:02:21.083Z,100282.39
2022-11-05T11:04:52.689Z,100284.95
2022-11-05T11:07:23.271Z,100287.23
2022-11-05T11:09:51.186Z,100290.96
2022-11-05T11:12:27.228Z,100291.08
2022-11-05T11:15:01.776Z,100294.48
2022-11-05T11:17:31.377Z,100295.33
2022-11-05T11:20:13.650Z,100300.16
2022-11-05T11:22:40.243Z,100303.81
2022-11-05T11:25:34.811Z,100302.08
2022-11-05T11:28:04.606Z,100304.33
2022-11-05T11:30:31.834Z,100303.59
2022-11-05T11:33:06.918Z,100300.02
2022-11-05T11:35:37.387Z,100283.80
2022-11-05T11:38:06.172Z,100298.39
2022-11-05T11:40:36.527Z,100303.35
2022-11-05T11:43:21.589Z,100301.87
2022-11-05T11:45:52.917Z,100306.56
2022-11-05T11:48:28.063Z,100307.73
2022-11-05T11:50:56.552Z,100313.31
2022-11-05T11:53:23.115Z,100318.25
2022-11-05T11:56:20.779Z,100319.58
2022-11-05T11:58:56.446Z,100326.00
2022-11-05T12:01:46.346Z,100332.03
2022-11-05T12:04:19.148Z,100330.59
2022-11-05T12:07:07.733Z,100333.59
2022-11-05T12:09:55.630Z,100315.30
2022-11-05T12:12:34.896Z,100336.27
2022-11-05T12:15:38.481Z,100335.00
2022-11-05T12:18:12.671Z,100337.56
2022-11-05T12:20:58.204Z,100334.67
2022-11-05T12:23:48.446Z,100333.05
2022-11-05T12:26:33.615Z,100328.25
2022-11-05T12:29:19.663Z,100327.70
2022-11-05T12:32:24.422Z,100327.55
2022-11-05T12:35:06.414Z,100329.88
2022-11-05T12:37:54.796Z,100331.86
2022-11-05T12:40:59.588Z,100331.23
2022-11-05T12:44:01.434Z,100332.08
2022-11-05T12:46:41.195Z,100330.97
2022-11-05T12:49:13.683Z,100328.66
2022-11-05T12:51:49.219Z,100328.42
2022-11-05T12:54:45.870Z,100335.21
2022-11-05T12:57:14.571Z,100339.17
2022-11-05T12:59:57.756Z,100342.77
2022-11-05T13:02:34.519Z,100348.17
2022-11-05T13:05:16.385Z,100346.33
2022-11-05T13:08:00.237Z,100346.05
2022-11-05T13:10:50.303Z,100351.31
2022-11-05T13:13:51.817Z,100352.16
2022-11-05T13:16:26.655Z,100353.65
2022-11-05T13:19:02.151Z,100351.30
2022-11-05T13:21:30.064Z,100352.84
2022-11-05T13:24:07.074Z,100357.20
2022-11-05T13:26:49.812Z,100360.72
2022-11-05T13:29:24.987Z,100362.03
2022-11-05T13:32:00.787Z,100369.34
2022-11-05T13:34:27.505Z,100377.70
2022-11-05T13:37:25.192Z,100378.69
2022-11-05T13:39:59.370Z,100381.30
2022-11-05T13:42:28.985Z,100381.75
2022-11-05T13:44:55.411Z,100387.05
2022-11-05T13:47:56.918Z,100391.17
2022-11-05T13:50:32.395Z,100395.11
2022-11-05T13:53:33.259Z,100394.70
2022-11-05T13:56:31.564Z,100392.94
2022-11-05T13:59:13.837Z,100398.93
2022-11-05T14:02:03.734Z,100401.20
2022-11-05T14:04:35.578Z,100405.27
2022-11-05T14:07:21.702Z,100409.11
2022-11-05T14:10:04.874Z,100416.29
2022-11-05T14:12:37.400Z,100422.64
2022-11-05T14:15:29.144Z,100427.02
2022-11-05T14:18:26.535Z,100429.16
2022-11-05T14:21:02.101Z,100433.58
2022-11-05T14:23:30.227Z,100435.84
2022-11-05T14:26:24.651Z,100438.84
2022-11-05T14:29:20.724Z,100443.55
2022-11-05T14:32:08.722Z,100450.53
2022-11-05T14:34:50.483Z,100447.69
2022-11-05T14:37:23.757Z,100449.27
2022-11-05T14:39:50.800Z,100453.66
2022-11-05T14:42:24.395Z,100459.41
2022-11-05T14:45:09.577Z,100457.59
2022-11-05T14:47:40.312Z,100464.34
2022-11-05T14:50:08.884Z,100461.81
2022-11-05T14:52:37.895Z,100463.60
2022-11-05T14:55:06.306Z,100465.34
2022-11-05T14:57:41.950Z,100465.60
2022-11-05T15:00:31.676Z,100471.19
2022-11-05T15:03:20.810Z,100470.32
2022-11-05T15:05:47.613Z,100470.00
2022-11-05T15:08:26.630Z,100473.88
2022-11-05T15:11:01.997Z,100473.17
2022-11-05T15:13:37.824Z,100475.14
2022-11-05T15:16:05.713Z,100474.14
2022-11-05T15:18:38.256Z,100478.05
2022-11-05T15:21:09.985Z,100483.01
2022-11-05T15:23:42.014Z,100488.29
2022-11-05T15:26:19.382Z,100496.90
2022-11-05T15:28:48.972Z,100493.34
2022-11-05T15:31:15.557Z,100494.09
2022-11-05T15:33:46.222Z,100495.69
2022-11-05T15:36:21.972Z,100501.04
2022-11-05T15:39:15.012Z,100500.83
2022-11-05T15:41:35.529Z,100501.48
2022-11-05T15:44:02.219Z,100504.93
2022-11-05T15:46:29.341Z,100503.27
2022-11-05T15:49:05.977Z,100503.21
2022-11-05T15:51:33.186Z,100509.63
2022-11-05T15:54:28.515Z,100510.68
2022-11-05T15:56:55.207Z,100514.67
2022-11-05T15:59:23.838Z,100514.08
2022-11-05T16:02:28.123Z,100486.56
2022-11-05T16:04:56.420Z,100518.49
2022-11-05T16:07:23.515Z,100518.91
2022-11-05T16:10:01.331Z,100525.20
2022-11-05T16:12:33.955Z,100534.67
2022-11-05T16:15:03.748Z,100540.73
2022-11-05T16:17:47.359Z,100539.64
2022-11-05T16:20:31.608Z,100541.28
2022-11-05T16:23:07.408Z,100542.66
2022-11-05T16:25:42.977Z,100545.73
2022-11-05T16:28:22.646Z,100551.44
2022-11-05T16:31:01.109Z,100559.77
2022-11-05T16:33:42.709Z,100563.52
2022-11-05T16:36:09.637Z,100576.13
2022-11-05T16:38:36.495Z,100575.17
2022-11-05T16:41:03.442Z,100578.78
2022-11-05T16:43:30.339Z,100585.68
2022-11-05T16:46:00.366Z,100588.92
2022-11-05T16:48:27.713Z,100587.57
2022-11-05T16:50:54.287Z,100593.64
2022-11-05T16:53:21.019Z,100596.01
2022-11-05T16:55:47.749Z,100595.90
2022-11-05T16:58:26.061Z,100599.71
2022-11-05T17:01:07.295Z,100599.23
2022-11-05T17:03:34.144Z,100604.25
2022-11-05T17:06:00.967Z,100606.95
2022-11-05T17:08:29.795Z,100608.98
2022-11-05T17:10:56.438Z,100622.08
2022-11-05T17:13:23.317Z,100622.84
2022-11-05T17:15:51.072Z,100622.91
2022-11-05T17:18:19.345Z,100626.48
2022-11-05T17:20:52.374Z,100631.42
2022-11-05T17:23:21.366Z,100639.95
2022-11-05T17:25:53.762Z,100646.69
2022-11-05T17:28:21.175Z,100643.88
2022-11-05T17:30:52.403Z,100646.39
2022-11-05T17:33:22.120Z,100651.19
2022-11-05T17:35:48.943Z,100656.00
2022-11-05T17:38:15.735Z,100667.35
2022-11-05T17:40:42.486Z,100666.36
2022-11-05T17:43:09.802Z,100665.61
2022-11-05T17:45:44.620Z,100668.33
2022-11-05T17:48:12.304Z,100665.38
2022-11-05T17:50:43.268Z,100665.27
2022-11-05T17:53:11.004Z,100670.98
2022-11-05T17:55:43.553Z,100670.02
2022-11-05T17:58:10.743Z,100670.29
2022-11-05T18:00:38.238Z,100674.27
2022-11-05T18:03:05.002Z,100675.11
2022-11-05T18:05:33.700Z,100684.17
2022-11-05T18:08:00.519Z,100683.08
2022-11-05T18:10:27.166Z,100687.31
2022-11-05T18:12:53.678Z,100688.08
2022-11-05T18:15:20.337Z,100690.28
2022-11-05T18:17:47.413Z,100689.31
2022-11-05T18:20:19.230Z,100691.58
2022-11-05T18:22:49.072Z,100697.08
2022-11-05T18:25:16.483Z,100696.34
2022-11-05T18:27:43.042Z,100693.83
2022-11-05T18:30:13.407Z,100694.95
2022-11-05T18:32:40.593Z,100691.89
2022-11-05T18:35:07.564Z,100688.48
2022-11-05T18:37:36.015Z,100681.59
2022-11-05T18:40:02.950Z,100695.09
2022-11-05T18:42:29.437Z,100694.95
2022-11-05T18:44:56.119Z,100695.75
2022-11-05T18:47:22.788Z,100681.50
2022-11-05T18:49:51.873Z,100695.05
2022-11-05T18:52:18.495Z,100691.74
2022-11-05T18:54:45.306Z,100697.99
2022-11-05T18:57:11.759Z,100703.96
2022-11-05T18:59:41.512Z,100708.05
2022-11-05T19:02:10.605Z,100710.77
2022-11-05T19:04:38.058Z,100709.23
2022-11-05T19:07:06.131Z,100710.27
2022-11-05T19:09:34.400Z,100709.73
2022-11-05T19:12:01.543Z,100712.23
2022-11-05T19:14:29.501Z,100715.09
2022-11-05T19:16:57.040Z,100718.77
2022-11-05T19:19:23.539Z,100718.77
2022-11-05T19:21:50.994Z,100719.08
2022-11-05T19:24:18.371Z,100718.17
2022-11-05T19:26:46.000Z,100719.93
2022-11-05T19:29:12.596Z,100719.93
2022-11-05T19:31:39.185Z,100721.00
2022-11-05T19:34:05.786Z,100723.15
2022-11-05T19:36:32.954Z,100732.48
2022-11-05T19:39:02.678Z,100737.58
2022-11-05T19:41:29.417Z,100735.10
2022-11-05T19:44:00.929Z,100740.05
2022-11-05T19:46:29.193Z,100746.05
2022-11-05T19:48:56.107Z,100749.48
2022-11-05T19:51:25.617Z,100757.23
2022-11-05T19:53:54.562Z,100758.10
2022-11-05T19:56:23.686Z,100755.80
2022-11-05T19:58:52.444Z,100761.33
2022-11-05T20:01:20.473Z,100760.32
2022-11-05T20:03:47.504Z,100761.55
2022-11-05T20:06:17.398Z,100759.05
2022-11-05T20:09:07.187Z,100762.59
2022-11-05T20:11:31.513Z,100766.48
2022-11-05T20:13:58.408Z,100776.04
2022-11-05T20:16:28.106Z,100773.35
2022-11-05T20:18:56.358Z,100778.05
2022-11-05T20:21:23.217Z,100782.45
2022-11-05T20:23:49.881Z,100786.02
2022-11-05T20:26:16.840Z,100784.61
2022-11-05T20:28:43.806Z,100782.05
2022-11-05T20:31:13.546Z,100787.94
2022-11-05T20:33:44.070Z,100791.50
2022-11-05T20:36:15.796Z,100793.58
2022-11-05T20:38:44.085Z,100777.61
2022-11-05T20:41:12.756Z,100797.94
2022-11-05T20:43:40.876Z,100800.44
2022-11-05T20:46:09.243Z,100799.21
2022-11-05T20:48:36.121Z,100804.13
2022-11-05T20:51:09.688Z,100801.99
2022-11-05T20:53:37.391Z,100771.87
2022-11-05T20:56:08.107Z,100800.60
2022-11-05T20:58:36.690Z,100799.52
2022-11-05T21:01:04.925Z,100803.20
2022-11-05T21:03:32.160Z,100804.80
2022-11-05T21:06:03.540Z,100805.51
2022-11-05T21:08:30.112Z,100809.15
2022-11-05T21:10:57.348Z,100814.85
2022-11-05T21:13:24.535Z,100814.36
2022-11-05T21:15:53.877Z,100810.13
2022-11-05T21:18:23.643Z,100812.09
2022-11-05T21:20:50.897Z,100814.41
2022-11-05T21:23:18.395Z,100816.58
2022-11-05T21:25:46.117Z,100819.95
2022-11-05T21:28:14.312Z,100826.67
2022-11-05T21:30:46.951Z,100824.09
2022-11-05T21:33:15.648Z,100821.35
2022-11-05T21:35:44.922Z,100820.69
2022-11-05T21:38:13.772Z,100821.05
2022-11-05T21:40:41.227Z,100820.20
2022-11-05T21:43:08.456Z,100818.31
2022-11-05T21:45:38.167Z,100817.84
2022-11-05T21:48:05.874Z,100823.66
2022-11-05T21:50:51.411Z,100824.77
2022-11-05T21:53:37.489Z,100814.79
2022-11-05T21:56:38.186Z,100827.19
2022-11-05T21:59:24.331Z,100829.23
2022-11-05T22:02:00.578Z,100827.70
2022-11-05T22:04:33.051Z,100827.17
2022-11-05T22:07:00.066Z,100829.55
2022-11-05T22:09:27.787Z,100830.28
2022-11-05T22:11:55.172Z,100829.80
2022-11-05T22:14:22.516Z,100829.09
2022-11-05T22:16:49.221Z,100834.08
2022-11-05T22:19:15.905Z,100838.48
2022-11-05T22:21:42.485Z,100846.27
2022-11-05T22:24:09.177Z,100845.23
2022-11-05T22:26:37.541Z,100850.94
2022-11-05T22:29:05.203Z,100851.89
2022-11-05T22:31:35.927Z,100854.96
2022-11-05T22:34:05.388Z,100852.20
2022-11-05T22:36:33.671Z,100849.60
2022-11-05T22:39:00.782Z,100852.28
2022-11-05T22:41:27.717Z,100840.38
2022-11-05T22:43:55.103Z,100853.06
2022-11-05T22:46:24.120Z,100856.14
2022-11-05T22:48:51.260Z,100854.59
2022-11-05T22:51:23.099Z,100853.58
2022-11-05T22:53:50.273Z,100855.95
2022-11-05T22:56:23.265Z,100855.84
2022-11-05T22:58:50.254Z,100857.18
2022-11-05T23:01:18.370Z,100858.12
2022-11-05T23:03:46.753Z,100858.70
2022-11-05T23:06:33.699Z,100860.73
2022-11-05T23:09:20.092Z,100860.71
2022-11-05T23:11:49.928Z,100860.18
2022-11-05T23:14:16.763Z,100861.59
2022-11-05T23:17:02.589Z,100861.20
2022-11-05T23:19:49.203Z,100859.98
2022-11-05T23:22:43.862Z,100856.95
2022-11-05T23:25:16.561Z,100857.48
2022-11-05T23:27:45.519Z,100864.33
2022-11-05T23:30:20.273Z,100866.45
2022-11-05T23:32:47.550Z,100866.38
2022-11-05T23:35:15.146Z,100863.45
2022-11-05T23:38:00.994Z,100845.17
2022-11-05T23:40:30.170Z,100859.87
2022-11-05T23:43:15.800Z,100856.68
2022-11-05T23:46:02.928Z,100862.17
2022-11-05T23:48:35.393Z,100858.81
2022-11-05T23:51:08.282Z,100860.96
2022-11-05T23:53:37.308Z,100865.70
2022-11-05T23:56:08.773Z,100859.70
2022-11-05T23:58:36.940Z,100867.41
